createdAt,value
2023-06-29T00:01:58.359Z,11.73
2023-06-29T00:04:26.705Z,11.55
2023-06-29T00:06:55.446Z,12.73
2023-06-29T00:09:25.624Z,11.82
2023-06-29T00:11:52.385Z,13.50
2023-06-29T00:14:19.147Z,14.02
2023-06-29T00:16:45.988Z,12.45
2023-06-29T00:19:15.574Z,12.93
2023-06-29T00:21:42.378Z,16.13
2023-06-29T00:24:12.175Z,14.73
2023-06-29T00:26:39.463Z,15.32
2023-06-29T00:29:06.702Z,15.43
2023-06-29T00:31:33.677Z,12.18
2023-06-29T00:34:00.557Z,12.80
2023-06-29T00:36:27.400Z,14.45
2023-06-29T00:38:54.294Z,11.70
2023-06-29T00:41:21.156Z,14.35
2023-06-29T00:43:47.917Z,15.98
2023-06-29T00:46:19.888Z,13.68
2023-06-29T00:48:47.517Z,13.43
2023-06-29T00:51:17.180Z,13.30
2023-06-29T00:53:44.617Z,15.27
2023-06-29T00:56:11.455Z,11.50
2023-06-29T00:58:38.856Z,16.00
2023-06-29T01:01:05.683Z,15.10
2023-06-29T01:03:32.656Z,13.95
2023-06-29T01:06:05.286Z,13.30
2023-06-29T01:08:44.286Z,13.13
2023-06-29T01:11:12.451Z,14.48
2023-06-29T01:13:42.238Z,13.13
2023-06-29T01:16:09.952Z,13.40
2023-06-29T01:18:38.234Z,14.15
2023-06-29T01:21:05.045Z,15.85
2023-06-29T01:23:38.446Z,14.30
2023-06-29T01:26:06.461Z,15.07
2023-06-29T01:28:39.379Z,14.27
2023-06-29T01:31:06.684Z,14.55
2023-06-29T01:33:34.921Z,14.70
2023-06-29T01:36:16.626Z,14.10
2023-06-29T01:41:17.783Z,14.43
2023-06-29T01:43:46.037Z,15.57
2023-06-29T01:46:13.861Z,13.27
2023-06-29T01:48:41.664Z,14.13
2023-06-29T01:51:09.860Z,13.35
2023-06-29T01:53:38.595Z,15.45
2023-06-29T01:56:05.879Z,13.88
2023-06-29T01:58:32.646Z,13.73
2023-06-29T02:00:59.470Z,13.13
2023-06-29T02:03:26.278Z,14.20
2023-06-29T02:05:53.093Z,12.32
2023-06-29T02:08:19.843Z,13.35
2023-06-29T02:10:46.665Z,12.27
2023-06-29T02:13:13.585Z,13.77
2023-06-29T02:15:40.403Z,12.13
2023-06-29T02:18:07.221Z,15.02
2023-06-29T02:20:34.016Z,11.48
2023-06-29T02:23:00.822Z,14.85
2023-06-29T02:25:27.607Z,12.98
2023-06-29T02:27:54.344Z,13.93
2023-06-29T02:30:21.132Z,15.48
2023-06-29T02:32:47.881Z,12.35
2023-06-29T02:35:14.660Z,14.63
2023-06-29T02:37:41.427Z,15.38
2023-06-29T02:40:08.910Z,12.57
2023-06-29T02:42:35.838Z,11.82
2023-06-29T02:45:02.852Z,15.25
2023-06-29T02:47:29.775Z,15.60
2023-06-29T02:49:56.574Z,12.75
2023-06-29T02:52:23.313Z,15.85
2023-06-29T02:54:50.456Z,14.27
2023-06-29T02:57:17.246Z,14.68
2023-06-29T02:59:44.012Z,14.80
2023-06-29T03:02:10.910Z,17.83
2023-06-29T03:04:37.733Z,15.00
2023-06-29T03:07:07.111Z,13.82
2023-06-29T03:09:34.750Z,15.73
2023-06-29T03:12:01.553Z,12.98
2023-06-29T03:14:28.307Z,12.90
2023-06-29T03:16:55.109Z,13.82
2023-06-29T03:19:22.003Z,14.18
2023-06-29T03:21:48.759Z,13.15
2023-06-29T03:24:15.542Z,15.35
2023-06-29T03:26:42.312Z,16.80
2023-06-29T03:29:09.274Z,15.18
2023-06-29T03:31:36.028Z,12.48
2023-06-29T03:34:02.812Z,15.90
2023-06-29T03:36:29.656Z,12.27
2023-06-29T03:38:56.415Z,18.80
2023-06-29T03:41:23.196Z,16.65
2023-06-29T03:43:50.009Z,14.35
2023-06-29T03:46:16.754Z,14.23
2023-06-29T03:48:43.603Z,16.52
2023-06-29T03:51:10.476Z,14.02
2023-06-29T03:53:37.221Z,13.32
2023-06-29T03:56:04.316Z,15.95
2023-06-29T03:58:31.062Z,15.23
2023-06-29T04:22:59.021Z,16.23
2023-06-29T04:25:25.833Z,14.73
2023-06-29T04:27:52.730Z,14.60
2023-06-29T04:30:19.496Z,13.60
2023-06-29T04:32:47.844Z,14.52
2023-06-29T04:35:14.682Z,15.23
2023-06-29T04:37:42.194Z,14.23
2023-06-29T04:40:10.971Z,13.90
2023-06-29T04:42:49.072Z,14.35
2023-06-29T04:45:20.228Z,16.92
2023-06-29T04:47:50.887Z,16.15
2023-06-29T04:50:27.204Z,20.53
2023-06-29T04:52:59.596Z,16.75
2023-06-29T04:55:26.928Z,15.57
2023-06-29T04:57:53.809Z,16.30
2023-06-29T05:00:21.111Z,15.10
2023-06-29T05:02:47.956Z,18.58
2023-06-29T05:05:14.800Z,16.20
2023-06-29T05:07:42.600Z,16.50
2023-06-29T05:10:09.779Z,18.83
2023-06-29T05:12:36.576Z,16.98
2023-06-29T05:15:03.558Z,15.73
2023-06-29T05:17:31.058Z,13.30
2023-06-29T05:19:59.051Z,20.15
2023-06-29T05:22:25.833Z,16.67
2023-06-29T05:24:52.606Z,16.35
2023-06-29T05:27:19.456Z,16.83
2023-06-29T05:29:46.209Z,19.20
2023-06-29T05:32:13.002Z,13.60
2023-06-29T05:34:39.754Z,21.25
2023-06-29T05:37:06.614Z,18.98
2023-06-29T05:39:33.451Z,16.38
2023-06-29T05:42:00.266Z,21.40
2023-06-29T05:44:27.023Z,17.77
2023-06-29T05:46:53.827Z,15.55
2023-06-29T05:49:20.593Z,15.77
2023-06-29T05:51:47.330Z,17.02
2023-06-29T05:54:14.124Z,17.20
2023-06-29T05:56:40.879Z,17.45
2023-06-29T05:59:07.613Z,17.10
2023-06-29T06:01:36.199Z,17.48
2023-06-29T06:04:07.012Z,18.60
2023-06-29T06:06:33.921Z,16.75
2023-06-29T06:09:00.704Z,17.10
2023-06-29T06:11:27.539Z,19.23
2023-06-29T06:13:54.355Z,16.10
2023-06-29T06:16:21.998Z,16.40
2023-06-29T06:18:48.865Z,16.55
2023-06-29T06:21:15.623Z,16.17
2023-06-29T06:23:42.826Z,16.98
2023-06-29T06:26:09.598Z,18.20
2023-06-29T06:28:36.391Z,15.80
2023-06-29T06:31:03.137Z,17.13
2023-06-29T06:33:31.259Z,15.73
2023-06-29T06:36:00.418Z,19.73
2023-06-29T06:38:40.832Z,17.05
2023-06-29T06:41:11.785Z,16.98
2023-06-29T06:43:38.547Z,18.65
2023-06-29T06:46:05.300Z,14.85
2023-06-29T06:48:32.069Z,18.70
2023-06-29T06:50:58.872Z,18.25
2023-06-29T06:53:25.970Z,16.70
2023-06-29T06:55:53.033Z,18.42
2023-06-29T06:58:19.807Z,18.10
2023-06-29T07:00:46.825Z,15.75
2023-06-29T07:03:13.947Z,17.35
2023-06-29T07:05:40.751Z,16.55
2023-06-29T07:08:07.619Z,16.85
2023-06-29T07:10:34.385Z,16.65
2023-06-29T07:13:01.154Z,17.30
2023-06-29T07:15:28.004Z,17.83
2023-06-29T07:17:54.937Z,17.02
2023-06-29T07:25:21.412Z,17.00
2023-06-29T07:27:48.182Z,16.20
2023-06-29T07:30:15.155Z,17.30
2023-06-29T07:32:41.969Z,16.90
2023-06-29T07:35:09.442Z,17.00
2023-06-29T07:37:36.329Z,16.52
2023-06-29T07:40:05.405Z,16.73
2023-06-29T07:42:39.404Z,18.08
2023-06-29T07:45:07.974Z,17.23
2023-06-29T07:47:34.957Z,15.48
2023-06-29T07:50:01.772Z,18.67
2023-06-29T07:52:28.626Z,17.77
2023-06-29T07:54:55.381Z,22.08
2023-06-29T07:59:51.829Z,19.35
2023-06-29T08:02:18.717Z,18.65
2023-06-29T08:07:15.282Z,15.82
2023-06-29T08:09:42.195Z,18.95
2023-06-29T08:12:09.306Z,20.25
2023-06-29T08:14:36.437Z,16.52
2023-06-29T08:17:04.576Z,16.50
2023-06-29T08:19:31.391Z,18.25
2023-06-29T08:21:58.243Z,15.02
2023-06-29T08:24:25.000Z,17.00
2023-06-29T08:26:51.955Z,14.55
2023-06-29T08:29:18.876Z,16.05
2023-06-29T08:31:45.634Z,19.77
2023-06-29T08:34:12.582Z,15.82
2023-06-29T08:36:39.402Z,14.10
2023-06-29T08:39:06.587Z,16.95
2023-06-29T08:41:33.380Z,16.73
2023-06-29T08:44:00.185Z,16.10
2023-06-29T08:46:29.135Z,16.90
2023-06-29T08:48:56.408Z,14.88
2023-06-29T08:51:23.845Z,16.25
2023-06-29T08:53:51.143Z,15.43
2023-06-29T08:56:18.298Z,17.98
2023-06-29T08:58:45.529Z,17.33
2023-06-29T09:01:13.137Z,15.70
2023-06-29T09:03:41.096Z,16.70
2023-06-29T09:06:09.793Z,18.00
2023-06-29T09:08:38.334Z,15.57
2023-06-29T09:11:05.295Z,17.08
2023-06-29T09:13:34.399Z,16.42
2023-06-29T09:16:01.747Z,18.85
2023-06-29T09:18:29.998Z,15.77
2023-06-29T09:20:57.594Z,17.02
2023-06-29T09:23:34.397Z,15.45
2023-06-29T09:26:05.994Z,14.65
2023-06-29T09:28:36.411Z,17.08
2023-06-29T09:31:13.555Z,20.08
2023-06-29T09:33:40.563Z,16.70
2023-06-29T09:36:09.461Z,17.63
2023-06-29T09:38:37.305Z,17.23
2023-06-29T09:41:07.672Z,16.67
2023-06-29T09:43:34.464Z,16.20
2023-06-29T09:46:09.792Z,18.02
2023-06-29T09:51:24.459Z,16.60
2023-06-29T09:53:51.663Z,20.52
2023-06-29T09:56:18.750Z,17.13
2023-06-29T09:58:47.373Z,16.77
2023-06-29T10:01:16.795Z,19.50
2023-06-29T10:03:44.808Z,23.45
2023-06-29T10:06:37.437Z,18.40
2023-06-29T10:09:05.859Z,16.50
2023-06-29T10:11:36.306Z,15.13
2023-06-29T10:14:08.009Z,17.50
2023-06-29T10:16:46.486Z,15.95
2023-06-29T10:19:20.807Z,15.18
2023-06-29T10:21:54.033Z,17.17
2023-06-29T10:24:26.073Z,18.08
2023-06-29T10:26:53.842Z,17.88
2023-06-29T10:29:20.740Z,15.43
2023-06-29T10:31:49.648Z,18.08
2023-06-29T10:34:16.455Z,18.35
2023-06-29T10:36:50.002Z,15.63
2023-06-29T10:39:38.614Z,14.98
2023-06-29T10:42:13.712Z,16.60
2023-06-29T10:44:40.573Z,18.38
2023-06-29T10:47:07.356Z,13.52
2023-06-29T10:49:34.205Z,12.07
2023-06-29T10:52:05.834Z,13.60
2023-06-29T10:54:32.880Z,15.32
2023-06-29T10:57:02.981Z,13.38
2023-06-29T10:59:31.048Z,14.30
2023-06-29T11:01:58.867Z,12.60
2023-06-29T11:04:25.921Z,14.43
2023-06-29T11:06:53.078Z,14.20
2023-06-29T11:09:20.667Z,13.48
2023-06-29T11:11:49.787Z,14.60
2023-06-29T11:14:18.463Z,13.65
2023-06-29T11:16:45.436Z,13.20
2023-06-29T11:19:13.626Z,16.95
2023-06-29T11:21:41.969Z,13.07
2023-06-29T11:24:11.199Z,13.55
2023-06-29T11:26:38.361Z,13.40
2023-06-29T11:29:09.209Z,12.15
2023-06-29T11:31:36.011Z,13.50
2023-06-29T11:34:02.855Z,14.52
2023-06-29T11:36:34.477Z,13.40
2023-06-29T11:39:13.012Z,17.75
2023-06-29T11:41:42.142Z,12.27
2023-06-29T11:44:11.531Z,11.90
2023-06-29T11:46:54.322Z,12.88
2023-06-29T11:49:26.391Z,14.00
2023-06-29T11:51:53.945Z,11.90
2023-06-29T11:54:21.018Z,13.10
2023-06-29T11:56:49.938Z,13.57
2023-06-29T11:59:16.968Z,12.27
2023-06-29T12:01:48.290Z,13.30
2023-06-29T12:04:15.661Z,12.52
2023-06-29T12:06:53.752Z,17.13
2023-06-29T12:09:21.302Z,12.68
2023-06-29T12:12:02.196Z,14.27
2023-06-29T12:14:33.866Z,11.52
2023-06-29T12:19:35.593Z,12.90
2023-06-29T12:22:05.321Z,12.07
2023-06-29T12:24:34.179Z,11.80
2023-06-29T12:27:01.389Z,11.32
2023-06-29T12:29:28.249Z,11.48
2023-06-29T12:32:01.889Z,13.45
2023-06-29T12:34:32.238Z,13.05
2023-06-29T12:36:59.056Z,10.63
2023-06-29T12:39:25.867Z,12.60
2023-06-29T12:41:53.275Z,11.02
2023-06-29T12:44:20.022Z,13.88
2023-06-29T12:46:46.859Z,11.88
2023-06-29T12:49:13.693Z,11.85
2023-06-29T12:51:40.448Z,14.48
2023-06-29T12:54:10.491Z,12.85
2023-06-29T12:56:39.259Z,12.73
2023-06-29T12:59:06.015Z,12.13
2023-06-29T13:01:32.825Z,12.32
2023-06-29T13:03:59.695Z,12.38
2023-06-29T13:06:26.605Z,12.18
2023-06-29T13:08:54.179Z,16.55
2023-06-29T13:11:21.709Z,14.40
2023-06-29T13:13:48.543Z,13.18
2023-06-29T13:16:15.371Z,14.05
2023-06-29T13:18:42.221Z,16.92
2023-06-29T13:21:08.981Z,13.57
2023-06-29T13:23:35.818Z,15.27
2023-06-29T13:26:02.890Z,15.15
2023-06-29T13:28:30.363Z,13.98
2023-06-29T13:30:58.537Z,14.52
2023-06-29T13:33:25.382Z,15.60
2023-06-29T13:35:52.128Z,16.08
2023-06-29T13:38:19.346Z,13.05
2023-06-29T13:40:46.125Z,14.20
2023-06-29T13:43:12.913Z,14.80
2023-06-29T13:45:39.697Z,15.38
2023-06-29T13:48:06.798Z,15.52
2023-06-29T13:50:41.573Z,16.23
2023-06-29T13:53:09.909Z,19.10
2023-06-29T13:55:37.597Z,16.50
2023-06-29T13:58:04.381Z,16.30
2023-06-29T14:00:31.151Z,15.73
2023-06-29T14:02:58.149Z,14.25
2023-06-29T14:05:25.078Z,16.75
2023-06-29T14:07:51.848Z,15.32
2023-06-29T14:10:18.609Z,15.65
2023-06-29T14:12:45.577Z,16.95
2023-06-29T14:15:12.448Z,14.40
2023-06-29T14:17:39.420Z,16.65
2023-06-29T14:20:07.468Z,16.00
2023-06-29T14:22:35.008Z,16.70
2023-06-29T14:25:03.301Z,16.40
2023-06-29T14:27:30.205Z,17.05
2023-06-29T14:29:56.967Z,21.30
2023-06-29T14:32:23.748Z,17.48
2023-06-29T14:34:50.987Z,19.60
2023-06-29T14:37:18.085Z,17.25
2023-06-29T14:39:44.852Z,19.85
2023-06-29T14:42:11.593Z,15.50
2023-06-29T14:44:38.967Z,15.93
2023-06-29T14:47:06.132Z,22.05
2023-06-29T14:49:32.874Z,15.95
2023-06-29T14:51:59.745Z,15.52
2023-06-29T14:54:26.675Z,19.38
2023-06-29T14:56:53.542Z,20.05
2023-06-29T14:59:22.005Z,21.55
2023-06-29T15:01:48.988Z,19.30
2023-06-29T15:04:15.854Z,17.27
2023-06-29T15:06:43.394Z,18.80
2023-06-29T15:09:10.196Z,18.05
2023-06-29T15:11:36.948Z,18.73
2023-06-29T15:14:03.691Z,18.42
2023-06-29T15:16:30.774Z,18.33
2023-06-29T15:19:00.341Z,20.15
2023-06-29T15:21:27.772Z,18.00
2023-06-29T15:23:54.913Z,20.20
2023-06-29T15:26:23.797Z,18.95
2023-06-29T15:28:50.718Z,22.75
2023-06-29T15:31:17.486Z,19.23
2023-06-29T15:33:44.303Z,19.15
2023-06-29T15:36:11.076Z,19.90
2023-06-29T15:38:38.179Z,19.63
2023-06-29T15:41:04.992Z,18.40
2023-06-29T15:43:32.326Z,19.05
2023-06-29T15:45:59.078Z,17.75
2023-06-29T15:48:26.004Z,15.23
2023-06-29T15:50:52.870Z,17.80
2023-06-29T15:53:19.977Z,17.52
2023-06-29T15:55:47.100Z,16.75
2023-06-29T15:58:14.096Z,16.88
2023-06-29T16:00:40.916Z,16.92
2023-06-29T16:03:07.785Z,16.45
2023-06-29T16:05:35.874Z,18.10
2023-06-29T16:08:03.311Z,20.20
2023-06-29T16:10:30.164Z,19.83
2023-06-29T16:12:57.067Z,21.67
2023-06-29T16:15:23.830Z,18.92
2023-06-29T16:17:50.738Z,19.63
2023-06-29T16:20:17.890Z,22.52
2023-06-29T16:22:44.824Z,20.10
2023-06-29T16:25:11.627Z,23.30
2023-06-29T16:27:38.383Z,24.98
2023-06-29T16:30:07.346Z,25.52
2023-06-29T16:32:34.255Z,27.10
2023-06-29T16:35:01.135Z,24.73
2023-06-29T16:37:28.001Z,24.23
2023-06-29T16:39:54.832Z,27.35
2023-06-29T16:42:21.593Z,29.17
2023-06-29T16:44:48.362Z,29.90
2023-06-29T16:47:15.137Z,30.02
2023-06-29T16:49:42.031Z,30.90
2023-06-29T16:52:09.269Z,29.65
2023-06-29T16:54:36.143Z,31.08
2023-06-29T16:57:03.089Z,31.65
2023-06-29T16:59:29.837Z,33.92
2023-06-29T17:01:57.698Z,31.00
2023-06-29T17:04:25.865Z,32.03
2023-06-29T17:06:52.869Z,32.13
2023-06-29T17:09:19.692Z,34.08
2023-06-29T17:11:46.556Z,29.83
2023-06-29T17:14:13.350Z,30.05
2023-06-29T17:16:40.242Z,29.23
2023-06-29T17:19:07.304Z,28.63
2023-06-29T17:21:34.112Z,29.75
2023-06-29T17:24:01.739Z,29.58
2023-06-29T17:26:28.844Z,27.80
2023-06-29T17:28:55.876Z,29.92
2023-06-29T17:31:22.701Z,27.15
2023-06-29T17:33:55.314Z,26.25
2023-06-29T17:36:23.915Z,26.40
2023-06-29T17:38:51.038Z,26.70
2023-06-29T17:41:17.813Z,26.42
2023-06-29T17:43:44.621Z,26.48
2023-06-29T17:46:11.552Z,24.63
2023-06-29T17:48:38.342Z,27.23
2023-06-29T17:51:16.954Z,25.75
2023-06-29T17:53:47.693Z,24.90
2023-06-29T17:56:17.673Z,25.08
2023-06-29T17:58:45.825Z,27.23
2023-06-29T18:01:13.739Z,27.08
2023-06-29T18:03:41.513Z,25.75
2023-06-29T18:06:08.685Z,24.30
2023-06-29T18:08:35.642Z,24.33
2023-06-29T18:11:02.443Z,24.45
2023-06-29T18:13:29.227Z,24.50
2023-06-29T18:15:56.165Z,25.98
2023-06-29T18:18:22.961Z,25.10
2023-06-29T18:20:49.742Z,25.77
2023-06-29T18:23:16.511Z,27.15
2023-06-29T18:25:43.802Z,26.60
2023-06-29T18:28:10.779Z,25.55
2023-06-29T18:30:37.589Z,27.40
2023-06-29T18:33:04.600Z,26.70
2023-06-29T18:35:31.436Z,24.38
2023-06-29T18:37:58.180Z,27.30
2023-06-29T18:40:28.067Z,27.60
2023-06-29T18:42:55.118Z,25.55
2023-06-29T18:45:24.104Z,26.17
2023-06-29T18:47:51.028Z,25.63
2023-06-29T18:50:17.894Z,29.08
2023-06-29T18:52:44.635Z,28.85
2023-06-29T18:55:11.506Z,27.40
2023-06-29T18:57:38.298Z,28.50
2023-06-29T19:00:07.860Z,28.08
2023-06-29T19:02:34.715Z,30.27
2023-06-29T19:05:03.677Z,27.70
2023-06-29T19:07:30.485Z,31.00
2023-06-29T19:09:57.307Z,28.08
2023-06-29T19:12:24.076Z,27.33
2023-06-29T19:14:50.878Z,27.60
2023-06-29T19:17:17.675Z,31.83
2023-06-29T19:19:45.003Z,30.17
2023-06-29T19:22:11.860Z,31.27
2023-06-29T19:24:38.840Z,32.60
2023-06-29T19:27:06.882Z,30.67
2023-06-29T19:29:33.992Z,34.17
2023-06-29T19:32:00.815Z,30.67
2023-06-29T19:34:27.590Z,28.92
2023-06-29T19:36:54.410Z,31.50
2023-06-29T19:39:21.216Z,32.75
2023-06-29T19:41:47.965Z,37.88
2023-06-29T19:44:15.081Z,35.47
2023-06-29T19:46:41.912Z,33.08
2023-06-29T19:49:08.697Z,34.50
2023-06-29T19:51:37.605Z,34.33
2023-06-29T19:54:04.405Z,33.45
2023-06-29T19:56:31.304Z,34.92
2023-06-29T19:58:58.103Z,32.45
2023-06-29T20:01:24.885Z,32.83
2023-06-29T20:03:51.763Z,32.63
2023-06-29T20:06:18.631Z,32.10
2023-06-29T20:08:45.389Z,30.63
2023-06-29T20:11:12.249Z,32.13
2023-06-29T20:13:39.054Z,31.60
2023-06-29T20:16:06.292Z,31.90
2023-06-29T20:18:33.120Z,30.58
2023-06-29T20:20:59.893Z,31.00
2023-06-29T20:23:26.654Z,29.73
2023-06-29T20:25:53.416Z,28.45
2023-06-29T20:28:20.818Z,28.02
2023-06-29T20:30:47.586Z,29.73
2023-06-29T20:33:14.383Z,21.10
2023-06-29T20:35:41.292Z,17.73
2023-06-29T20:38:09.009Z,14.82
2023-06-29T20:40:35.789Z,14.52
2023-06-29T20:43:02.639Z,14.18
2023-06-29T20:45:29.751Z,14.55
2023-06-29T20:47:57.807Z,13.25
2023-06-29T20:50:24.621Z,11.32
2023-06-29T20:52:52.654Z,12.82
2023-06-29T20:55:19.402Z,12.95
2023-06-29T20:57:46.259Z,11.35
2023-06-29T21:00:14.070Z,11.13
2023-06-29T21:02:41.887Z,12.52
2023-06-29T21:05:09.916Z,10.02
2023-06-29T21:07:37.020Z,11.25
2023-06-29T21:10:04.234Z,15.40
2023-06-29T21:12:31.386Z,10.65
2023-06-29T21:14:58.912Z,10.80
2023-06-29T21:17:26.175Z,10.05
2023-06-29T21:19:53.338Z,9.20
2023-06-29T21:22:20.750Z,11.45
2023-06-29T21:24:48.293Z,9.25
2023-06-29T21:27:19.013Z,9.30
2023-06-29T21:29:47.618Z,9.83
2023-06-29T21:32:15.777Z,8.40
2023-06-29T21:34:42.949Z,6.93
2023-06-29T21:37:10.818Z,7.50
2023-06-29T21:39:37.570Z,7.38
2023-06-29T21:42:05.045Z,7.38
2023-06-29T21:44:31.901Z,7.78
2023-06-29T21:47:01.380Z,7.05
2023-06-29T21:49:28.328Z,5.93
2023-06-29T21:51:55.262Z,5.45
2023-06-29T21:54:22.030Z,5.95
2023-06-29T21:56:50.459Z,9.25
2023-06-29T21:59:17.259Z,6.20
2023-06-29T22:01:44.106Z,8.00
2023-06-29T22:04:11.199Z,4.80
2023-06-29T22:06:38.175Z,5.43
2023-06-29T22:09:04.924Z,5.32
2023-06-29T22:11:31.801Z,5.60
2023-06-29T22:13:58.560Z,5.28
2023-06-29T22:16:25.669Z,3.80
2023-06-29T22:18:52.794Z,3.53
2023-06-29T22:21:21.940Z,3.72
2023-06-29T22:23:50.787Z,3.25
2023-06-29T22:26:18.621Z,2.95
2023-06-29T22:28:45.813Z,4.05
2023-06-29T22:31:14.998Z,3.13
2023-06-29T22:33:41.872Z,3.05
2023-06-29T22:36:08.714Z,2.95
2023-06-29T22:38:36.117Z,3.05
2023-06-29T22:41:03.008Z,7.72
2023-06-29T22:43:29.798Z,3.30
2023-06-29T22:45:56.612Z,4.47
2023-06-29T22:48:23.677Z,4.72
2023-06-29T22:50:50.504Z,6.55
2023-06-29T22:53:17.321Z,6.13
2023-06-29T22:55:44.947Z,5.97
2023-06-29T22:58:11.872Z,3.75
2023-06-29T23:00:38.833Z,4.32
2023-06-29T23:03:05.704Z,4.18
2023-06-29T23:05:32.588Z,7.72
2023-06-29T23:07:59.479Z,7.00
2023-06-29T23:10:28.507Z,4.88
2023-06-29T23:12:55.302Z,4.53
2023-06-29T23:15:26.866Z,4.97
2023-06-29T23:17:56.481Z,4.97
2023-06-29T23:20:28.190Z,4.10
2023-06-29T23:22:55.044Z,5.22
2023-06-29T23:25:21.858Z,3.80
2023-06-29T23:27:48.698Z,2.75
2023-06-29T23:30:16.598Z,2.70
2023-06-29T23:32:50.873Z,4.15
2023-06-29T23:35:18.138Z,3.45
2023-06-29T23:37:45.176Z,4.22
2023-06-29T23:40:12.552Z,4.88
2023-06-29T23:42:40.098Z,2.83
2023-06-29T23:45:11.902Z,4.28
2023-06-29T23:50:12.128Z,4.40
2023-06-29T23:52:39.476Z,6.35
2023-06-29T23:55:09.117Z,5.97
2023-06-29T23:57:35.955Z,4.95
